createdAt,value
2022-08-29T00:00:17.608Z,101762.81
2022-08-29T00:02:49.874Z,101765.59
2022-08-29T00:05:19.012Z,101765.31
2022-08-29T00:07:47.716Z,101765.28
2022-08-29T00:10:17.433Z,101762.75
2022-08-29T00:12:46.495Z,101761.91
2022-08-29T00:15:16.506Z,101760.28
2022-08-29T00:17:47.251Z,101747.94
2022-08-29T00:20:19.350Z,101748.50
2022-08-29T00:22:48.212Z,101747.38
2022-08-29T00:25:17.152Z,101749.03
2022-08-29T00:27:49.869Z,101742.31
2022-08-29T00:30:20.877Z,101750.44
2022-08-29T00:32:50.962Z,101752.16
2022-08-29T00:35:22.720Z,101750.16
2022-08-29T00:37:52.168Z,101755.22
2022-08-29T00:40:23.776Z,101755.22
2022-08-29T00:42:52.523Z,101749.63
2022-08-29T00:45:21.482Z,101752.44
2022-08-29T00:47:56.252Z,101758.06
2022-08-29T00:50:29.714Z,101756.13
2022-08-29T00:53:00.200Z,101760.06
2022-08-29T00:55:33.759Z,101749.13
2022-08-29T00:58:07.257Z,101747.72
2022-08-29T01:00:38.220Z,101746.81
2022-08-29T01:03:08.910Z,101749.09
2022-08-29T01:05:38.449Z,101751.63
2022-08-29T01:08:08.590Z,101752.19
2022-08-29T01:10:55.095Z,101747.41
2022-08-29T01:13:27.405Z,101753.06
2022-08-29T01:15:57.395Z,101756.13
2022-08-29T01:18:30.187Z,101759.22
2022-08-29T01:21:08.204Z,101759.22
2022-08-29T01:23:43.008Z,101762.59
2022-08-29T01:26:14.134Z,101764.88
2022-08-29T01:28:44.902Z,101762.63
2022-08-29T01:31:46.877Z,101748.59
2022-08-29T01:34:08.181Z,101757.56
2022-08-29T01:36:41.116Z,101753.91
2022-08-29T01:39:10.471Z,101758.69
2022-08-29T01:41:41.812Z,101776.09
2022-08-29T01:44:13.114Z,101769.38
2022-08-29T01:46:42.513Z,101770.47
2022-08-29T01:49:13.426Z,101765.97
2022-08-29T01:51:42.915Z,101769.91
2022-08-29T01:54:12.843Z,101771.59
2022-08-29T01:56:45.612Z,101767.09
2022-08-29T01:59:18.507Z,101767.66
2022-08-29T02:01:51.277Z,101770.47
2022-08-29T02:04:20.512Z,101776.06
2022-08-29T02:06:49.531Z,101773.25
2022-08-29T02:09:18.547Z,101774.66
2022-08-29T02:11:48.716Z,101777.75
2022-08-29T02:14:19.538Z,101785.59
2022-08-29T02:16:48.853Z,101782.50
2022-08-29T02:19:18.543Z,101797.09
2022-08-29T02:21:47.436Z,101793.75
2022-08-29T02:24:26.266Z,101794.28
2022-08-29T02:26:58.491Z,101797.66
2022-08-29T02:29:37.065Z,101792.91
2022-08-29T02:32:08.547Z,101794.00
2022-08-29T02:34:37.981Z,101797.94
2022-08-29T02:37:07.573Z,101793.47
2022-08-29T02:39:36.278Z,101800.44
2022-08-29T02:42:06.954Z,101799.59
2022-08-29T02:44:35.595Z,101793.44
2022-08-29T02:47:04.788Z,101799.59
2022-08-29T02:49:33.395Z,101793.44
2022-08-29T02:52:06.723Z,101791.75
2022-08-29T02:54:36.001Z,101804.09
2022-08-29T02:57:06.859Z,101803.81
2022-08-29T02:59:35.456Z,101792.59
2022-08-29T03:02:04.168Z,101793.09
2022-08-29T03:04:32.836Z,101790.88
2022-08-29T03:07:01.458Z,101793.41
2022-08-29T03:09:30.050Z,101795.66
2022-08-29T03:11:58.797Z,101789.75
2022-08-29T03:14:28.741Z,101783.84
2022-08-29T03:16:57.437Z,101775.16
2022-08-29T03:19:26.430Z,101779.94
2022-08-29T03:21:55.467Z,101772.31
2022-08-29T03:24:26.502Z,101780.19
2022-08-29T03:26:56.344Z,101774.56
2022-08-29T03:29:27.219Z,101776.00
2022-08-29T03:31:58.497Z,101774.06
2022-08-29T03:34:28.470Z,101775.16
2022-08-29T03:36:57.139Z,101770.66
2022-08-29T03:39:25.857Z,101765.25
2022-08-29T03:41:54.693Z,101774.84
2022-08-29T03:44:23.843Z,101775.94
2022-08-29T03:46:54.552Z,101766.41
2022-08-29T03:49:23.251Z,101765.31
2022-08-29T03:51:51.844Z,101766.97
2022-08-29T03:54:20.526Z,101759.97
2022-08-29T03:56:50.007Z,101758.28
2022-08-29T03:59:19.712Z,101765.22
2022-08-29T04:01:48.557Z,101762.72
2022-08-29T04:04:33.682Z,101760.50
2022-08-29T04:07:02.431Z,101755.16
2022-08-29T04:09:31.537Z,101763.78
2022-08-29T04:12:00.606Z,101759.00
2022-08-29T04:14:29.616Z,101766.84
2022-08-29T04:16:58.207Z,101754.31
2022-08-29T04:19:28.235Z,101760.78
2022-08-29T04:21:57.670Z,101764.88
2022-08-29T04:24:26.457Z,101772.75
2022-08-29T04:26:55.046Z,101772.97
2022-08-29T04:29:23.655Z,101766.78
2022-08-29T04:31:52.265Z,101767.09
2022-08-29T04:34:21.448Z,101766.59
2022-08-29T04:36:51.445Z,101761.53
2022-08-29T04:39:20.778Z,101764.56
2022-08-29T04:41:49.358Z,101765.41
2022-08-29T04:44:17.997Z,101769.88
2022-08-29T04:46:46.681Z,101767.94
2022-08-29T04:49:15.341Z,101785.31
2022-08-29T04:51:43.924Z,101783.09
2022-08-29T04:54:13.908Z,101779.72
2022-08-29T04:56:43.196Z,101774.06
2022-08-29T04:59:16.875Z,101775.28
2022-08-29T05:01:47.342Z,101778.03
2022-08-29T05:04:16.079Z,101772.41
2022-08-29T05:06:44.705Z,101772.44
2022-08-29T05:09:15.244Z,101780.84
2022-08-29T05:11:43.927Z,101779.66
2022-08-29T05:14:13.061Z,101787.00
2022-08-29T05:16:42.054Z,101786.16
2022-08-29T05:19:11.729Z,101789.25
2022-08-29T05:21:41.711Z,101786.50
2022-08-29T05:24:13.503Z,101794.59
2022-08-29T05:26:46.306Z,101784.28
2022-08-29T05:29:15.246Z,101797.19
2022-08-29T05:31:45.485Z,101797.53
2022-08-29T05:34:34.006Z,101792.22
2022-08-29T05:37:03.996Z,101795.00
2022-08-29T05:39:35.032Z,101795.16
2022-08-29T05:42:04.166Z,101793.91
2022-08-29T05:44:35.478Z,101790.00
2022-08-29T05:47:05.462Z,101795.78
2022-08-29T05:49:36.015Z,101789.69
2022-08-29T05:52:05.535Z,101786.44
2022-08-29T05:54:37.898Z,101786.56
2022-08-29T05:57:07.941Z,101795.63
2022-08-29T05:59:37.632Z,101801.94
2022-08-29T06:02:07.787Z,101804.63
2022-08-29T06:04:36.752Z,101810.72
2022-08-29T06:07:06.648Z,101817.38
2022-08-29T06:09:36.932Z,101815.84
2022-08-29T06:12:06.305Z,101816.16
2022-08-29T06:14:35.289Z,101818.84
2022-08-29T06:17:05.060Z,101824.78
2022-08-29T06:19:36.063Z,101827.34
2022-08-29T06:22:09.704Z,101817.66
2022-08-29T06:24:42.554Z,101817.63
2022-08-29T06:27:14.208Z,101825.53
2022-08-29T06:29:43.942Z,101821.97
2022-08-29T06:32:13.240Z,101821.59
2022-08-29T06:34:42.227Z,101823.19
2022-08-29T06:37:11.243Z,101826.50
2022-08-29T06:39:41.489Z,101839.53
2022-08-29T06:42:10.233Z,101831.69
2022-08-29T06:44:43.853Z,101838.16
2022-08-29T06:47:13.067Z,101836.16
2022-08-29T06:49:41.763Z,101841.03
2022-08-29T06:52:10.606Z,101836.25
2022-08-29T06:54:40.585Z,101838.78
2022-08-29T06:57:09.208Z,101839.72
2022-08-29T06:59:37.857Z,101841.31
2022-08-29T07:02:06.887Z,101841.09
2022-08-29T07:04:35.570Z,101845.28
2022-08-29T07:07:05.316Z,101850.56
2022-08-29T07:09:34.441Z,101849.34
2022-08-29T07:12:06.030Z,101842.09
2022-08-29T07:14:34.650Z,101845.16
2022-08-29T07:17:03.232Z,101837.59
2022-08-29T07:19:31.888Z,101836.56
2022-08-29T07:22:00.774Z,101838.50
2022-08-29T07:24:29.533Z,101839.13
2022-08-29T07:26:58.172Z,101844.19
2022-08-29T07:29:28.762Z,101848.88
2022-08-29T07:31:57.560Z,101855.50
2022-08-29T07:34:26.151Z,101856.22
2022-08-29T07:36:54.770Z,101852.47
2022-08-29T07:39:24.124Z,101843.97
2022-08-29T07:41:53.113Z,101848.53
2022-08-29T07:44:21.750Z,101854.81
2022-08-29T07:46:56.898Z,101852.66
2022-08-29T07:49:36.073Z,101849.94
2022-08-29T07:52:09.145Z,101844.41
2022-08-29T07:54:38.355Z,101844.28
2022-08-29T07:57:07.446Z,101838.69
2022-08-29T07:59:36.065Z,101838.44
2022-08-29T08:02:06.245Z,101832.81
2022-08-29T08:04:35.005Z,101839.56
2022-08-29T08:07:03.759Z,101847.97
2022-08-29T08:09:32.647Z,101842.91
2022-08-29T08:12:04.967Z,101847.97
2022-08-29T08:14:36.790Z,101845.31
2022-08-29T08:17:06.822Z,101851.63
2022-08-29T08:19:35.622Z,101842.41
2022-08-29T08:22:04.279Z,101847.41
2022-08-29T08:24:32.890Z,101857.06
2022-08-29T08:27:01.501Z,101857.13
2022-08-29T08:29:30.106Z,101853.75
2022-08-29T08:31:59.957Z,101856.19
2022-08-29T08:34:30.345Z,101858.97
2022-08-29T08:36:59.041Z,101867.38
2022-08-29T08:39:27.635Z,101858.31
2022-08-29T08:42:04.467Z,101862.03
2022-08-29T08:44:55.936Z,101853.25
2022-08-29T08:47:29.681Z,101857.50
2022-08-29T08:50:10.160Z,101860.03
2022-08-29T08:52:44.821Z,101865.84
2022-08-29T08:55:23.583Z,101854.75
2022-08-29T08:58:00.401Z,101866.97
2022-08-29T09:00:37.013Z,101867.00
2022-08-29T09:03:15.050Z,101861.53
2022-08-29T09:06:03.429Z,101867.19
2022-08-29T09:08:41.276Z,101861.75
2022-08-29T09:11:20.991Z,101850.22
2022-08-29T09:13:59.137Z,101850.34
2022-08-29T09:16:32.761Z,101852.47
2022-08-29T09:19:05.495Z,101861.44
2022-08-29T09:21:49.554Z,101860.22
2022-08-29T09:24:26.098Z,101860.91
2022-08-29T09:26:56.334Z,101851.91
2022-08-29T09:29:28.463Z,101856.97
2022-08-29T09:32:20.197Z,101864.28
2022-08-29T09:35:07.938Z,101876.47
2022-08-29T09:37:39.444Z,101871.72
2022-08-29T09:40:12.573Z,101871.06
2022-08-29T09:43:01.425Z,101864.72
2022-08-29T09:45:30.610Z,101856.44
2022-08-29T09:48:11.193Z,101855.03
2022-08-29T09:50:40.052Z,101854.69
2022-08-29T09:53:23.768Z,101855.75
2022-08-29T09:55:54.332Z,101855.81
2022-08-29T09:58:31.098Z,101858.81
2022-08-29T10:01:04.519Z,101849.06
2022-08-29T10:03:37.651Z,101845.00
2022-08-29T10:06:11.015Z,101848.19
2022-08-29T10:08:43.636Z,101852.94
2022-08-29T10:11:24.240Z,101855.09
2022-08-29T10:13:56.195Z,101847.84
2022-08-29T10:16:38.207Z,101842.97
2022-08-29T10:19:13.047Z,101836.06
2022-08-29T10:21:49.984Z,101842.31
2022-08-29T10:24:53.399Z,101831.81
2022-08-29T10:27:31.961Z,101840.19
2022-08-29T10:30:10.515Z,101831.50
2022-08-29T10:33:00.819Z,101840.63
2022-08-29T10:35:33.276Z,101834.31
2022-08-29T10:38:13.166Z,101831.31
2022-08-29T10:40:47.607Z,101832.81
2022-08-29T10:43:29.851Z,101821.59
2022-08-29T10:46:31.357Z,101825.19
2022-08-29T10:49:06.548Z,101829.38
2022-08-29T10:51:42.607Z,101823.53
2022-08-29T10:54:22.718Z,101825.97
2022-08-29T10:56:55.885Z,101820.28
2022-08-29T10:59:34.948Z,101813.59
2022-08-29T11:02:12.641Z,101824.72
2022-08-29T11:04:46.862Z,101814.44
2022-08-29T11:07:21.580Z,101808.59
2022-08-29T11:09:55.855Z,101802.47
2022-08-29T11:12:45.067Z,101799.53
2022-08-29T11:15:20.828Z,101776.34
2022-08-29T11:17:57.196Z,101779.03
2022-08-29T11:20:31.614Z,101785.06
2022-08-29T11:23:06.500Z,101778.81
2022-08-29T11:25:41.792Z,101775.94
2022-08-29T11:28:21.636Z,101778.28
2022-08-29T11:30:58.434Z,101771.38
2022-08-29T11:33:37.962Z,101769.19
2022-08-29T11:36:30.325Z,101768.72
2022-08-29T11:39:30.496Z,101764.44
2022-08-29T11:42:07.296Z,101765.47
2022-08-29T11:44:41.119Z,101765.09
2022-08-29T11:47:40.489Z,101757.06
2022-08-29T11:50:24.188Z,101754.81
2022-08-29T11:52:57.674Z,101751.44
2022-08-29T11:55:36.271Z,101753.31
2022-08-29T11:58:21.508Z,101752.47
2022-08-29T12:00:53.109Z,101744.78
2022-08-29T12:03:55.399Z,101755.66
2022-08-29T12:06:40.514Z,101749.22
2022-08-29T12:09:32.428Z,101748.84
2022-08-29T12:12:38.302Z,101732.03
2022-08-29T12:15:45.596Z,101740.56
2022-08-29T12:18:47.753Z,101740.25
2022-08-29T12:21:35.674Z,101740.03
2022-08-29T12:24:05.208Z,101738.66
2022-08-29T12:26:45.765Z,101728.50
2022-08-29T12:29:22.136Z,101725.91
2022-08-29T12:32:23.863Z,101732.16
2022-08-29T12:35:23.851Z,101717.06
2022-08-29T12:38:10.639Z,101723.84
2022-08-29T12:41:01.030Z,101723.91
2022-08-29T12:43:37.254Z,101723.50
2022-08-29T12:46:12.520Z,101711.31
2022-08-29T12:48:46.278Z,101712.84
2022-08-29T12:51:36.914Z,101700.19
2022-08-29T12:54:06.411Z,101706.59
2022-08-29T12:56:35.909Z,101704.53
2022-08-29T12:59:06.069Z,101694.59
2022-08-29T13:01:38.484Z,101696.47
2022-08-29T13:04:14.756Z,101683.28
2022-08-29T13:06:56.146Z,101690.69
2022-08-29T13:09:29.673Z,101693.09
2022-08-29T13:12:18.516Z,101691.84
2022-08-29T13:14:59.463Z,101688.63
2022-08-29T13:17:30.771Z,101699.44
2022-08-29T13:20:40.253Z,101696.56
2022-08-29T13:23:18.312Z,101683.81
2022-08-29T13:25:50.761Z,101690.75
2022-08-29T13:28:24.930Z,101682.81
2022-08-29T13:31:34.502Z,101686.09
2022-08-29T13:34:19.530Z,101681.47
2022-08-29T13:36:59.310Z,101681.06
2022-08-29T13:39:41.653Z,101673.75
2022-08-29T13:42:23.474Z,101681.47
2022-08-29T13:45:10.700Z,101669.31
2022-08-29T13:47:52.018Z,101669.69
2022-08-29T13:50:20.654Z,101682.75
2022-08-29T13:52:52.609Z,101668.44
2022-08-29T13:55:22.915Z,101656.94
2022-08-29T13:57:54.921Z,101658.44
2022-08-29T14:00:32.199Z,101645.59
2022-08-29T14:03:05.489Z,101657.22
2022-08-29T14:05:35.302Z,101643.22
2022-08-29T14:08:05.476Z,101644.22
2022-08-29T14:10:35.574Z,101642.00
2022-08-29T14:13:04.768Z,101636.09
2022-08-29T14:15:34.041Z,101641.50
2022-08-29T14:18:02.699Z,101637.84
2022-08-29T14:20:31.548Z,101630.31
2022-08-29T14:23:00.151Z,101626.84
2022-08-29T14:25:28.780Z,101628.66
2022-08-29T14:27:58.774Z,101632.56
2022-08-29T14:30:27.789Z,101619.50
2022-08-29T14:32:56.411Z,101629.06
2022-08-29T14:35:26.610Z,101628.66
2022-08-29T14:38:01.077Z,101631.47
2022-08-29T14:40:32.355Z,101642.03
2022-08-29T14:43:03.678Z,101632.44
2022-08-29T14:45:33.227Z,101628.34
2022-08-29T14:48:02.350Z,101623.53
2022-08-29T14:50:31.007Z,101620.69
2022-08-29T14:53:00.172Z,101614.25
2022-08-29T14:55:28.896Z,101609.41
2022-08-29T14:57:57.480Z,101617.72
2022-08-29T15:00:29.969Z,101611.09
2022-08-29T15:03:00.006Z,101606.88
2022-08-29T15:05:28.834Z,101613.63
2022-08-29T15:07:57.635Z,101611.72
2022-08-29T15:10:26.659Z,101604.56
2022-08-29T15:12:55.490Z,101603.66
2022-08-29T15:15:29.513Z,101607.78
2022-08-29T15:18:01.547Z,101600.84
2022-08-29T15:20:36.044Z,101597.50
2022-08-29T15:23:05.866Z,101598.34
2022-08-29T15:25:34.754Z,101585.91
2022-08-29T15:28:03.751Z,101584.72
2022-08-29T15:30:32.796Z,101583.28
2022-08-29T15:33:03.082Z,101578.06
2022-08-29T15:35:31.892Z,101574.13
2022-08-29T15:38:00.467Z,101570.28
2022-08-29T15:40:29.357Z,101574.13
2022-08-29T15:42:58.041Z,101556.41
2022-08-29T15:45:26.700Z,101557.56
2022-08-29T15:47:55.739Z,101564.53
2022-08-29T15:50:28.233Z,101565.94
2022-08-29T15:52:56.915Z,101560.19
2022-08-29T15:55:25.811Z,101549.19
2022-08-29T15:57:54.587Z,101555.16
2022-08-29T16:00:30.216Z,101551.00
2022-08-29T16:03:02.672Z,101555.16
2022-08-29T16:05:33.196Z,101556.56
2022-08-29T16:08:02.168Z,101558.91
2022-08-29T16:10:31.396Z,101544.28
2022-08-29T16:13:00.147Z,101547.06
2022-08-29T16:15:31.239Z,101547.22
2022-08-29T16:18:00.754Z,101549.47
2022-08-29T16:20:31.079Z,101541.47
2022-08-29T16:23:01.934Z,101538.38
2022-08-29T16:25:32.187Z,101538.81
2022-08-29T16:28:01.747Z,101549.31
2022-08-29T16:30:34.872Z,101537.59
2022-08-29T16:33:06.642Z,101547.44
2022-08-29T16:35:35.659Z,101542.94
2022-08-29T16:38:05.620Z,101553.94
2022-08-29T16:40:34.352Z,101552.84
2022-08-29T16:43:03.997Z,101548.78
2022-08-29T16:45:33.448Z,101547.38
2022-08-29T16:48:02.458Z,101551.44
2022-08-29T16:50:33.440Z,101547.34
2022-08-29T16:53:02.846Z,101552.03
2022-08-29T16:55:33.374Z,101552.13
2022-08-29T16:58:19.568Z,101551.75
2022-08-29T17:00:48.197Z,101555.03
2022-08-29T17:03:20.061Z,101559.00
2022-08-29T17:05:49.842Z,101548.19
2022-08-29T17:08:17.905Z,101543.19
2022-08-29T17:10:46.893Z,101541.16
2022-08-29T17:13:14.348Z,101548.94
2022-08-29T17:15:41.958Z,101539.75
2022-08-29T17:18:10.530Z,101541.09
2022-08-29T17:20:41.304Z,101541.84
2022-08-29T17:23:12.980Z,101541.84
2022-08-29T17:25:41.592Z,101544.16
2022-08-29T17:28:18.117Z,101547.97
2022-08-29T17:30:48.897Z,101547.16
2022-08-29T17:33:18.281Z,101549.16
2022-08-29T17:35:47.763Z,101549.22
2022-08-29T17:38:17.629Z,101544.44
2022-08-29T17:40:48.075Z,101547.41
2022-08-29T17:43:20.238Z,101549.16
2022-08-29T17:45:49.675Z,101549.25
2022-08-29T17:48:19.471Z,101541.53
2022-08-29T17:50:49.158Z,101549.31
2022-08-29T17:53:19.260Z,101542.63
2022-08-29T17:55:48.265Z,101546.34
2022-08-29T17:58:19.428Z,101545.13
2022-08-29T18:00:48.431Z,101550.75
2022-08-29T18:03:18.291Z,101556.63
2022-08-29T18:05:46.998Z,101551.38
2022-08-29T18:08:15.688Z,101557.78
2022-08-29T18:10:44.391Z,101553.81
2022-08-29T18:13:13.730Z,101561.66
2022-08-29T18:15:43.967Z,101554.34
2022-08-29T18:18:13.188Z,101555.28
2022-08-29T18:20:42.267Z,101553.69
2022-08-29T18:23:10.940Z,101550.31
2022-08-29T18:25:39.595Z,101550.63
2022-08-29T18:28:08.457Z,101553.72
2022-08-29T18:30:37.382Z,101556.88
2022-08-29T18:33:08.814Z,101553.59
2022-08-29T18:35:37.579Z,101553.03
2022-08-29T18:38:06.340Z,101553.66
2022-08-29T18:40:39.351Z,101559.38
2022-08-29T18:43:09.897Z,101546.16
2022-08-29T18:45:39.005Z,101554.03
2022-08-29T18:48:09.867Z,101542.91
2022-08-29T18:50:38.705Z,101549.97
2022-08-29T18:53:11.794Z,101550.06
2022-08-29T18:55:43.974Z,101548.66
2022-08-29T18:58:18.622Z,101558.00
2022-08-29T19:00:47.419Z,101559.56
2022-08-29T19:03:18.132Z,101556.47
2022-08-29T19:05:49.432Z,101560.41
2022-08-29T19:08:19.140Z,101561.31
2022-08-29T19:10:49.448Z,101562.56
2022-08-29T19:13:22.798Z,101568.91
2022-08-29T19:15:54.336Z,101570.16
2022-08-29T19:18:24.330Z,101570.94
2022-08-29T19:21:06.575Z,101572.13
2022-08-29T19:23:38.726Z,101572.25
2022-08-29T19:26:11.750Z,101574.47
2022-08-29T19:28:41.014Z,101571.94
2022-08-29T19:31:10.329Z,101575.44
2022-08-29T19:33:40.808Z,101575.97
2022-08-29T19:36:10.131Z,101580.72
2022-08-29T19:38:39.478Z,101572.31
2022-08-29T19:41:08.719Z,101573.13
2022-08-29T19:43:40.213Z,101573.94
2022-08-29T19:46:16.416Z,101575.66
2022-08-29T19:48:50.895Z,101568.72
2022-08-29T19:51:21.785Z,101566.19
2022-08-29T19:53:53.593Z,101569.41
2022-08-29T19:56:23.243Z,101571.25
2022-08-29T19:58:51.870Z,101570.97
2022-08-29T20:01:20.617Z,101577.41
2022-08-29T20:03:50.757Z,101576.50
2022-08-29T20:06:21.185Z,101570.44
2022-08-29T20:08:50.109Z,101575.19
2022-08-29T20:11:22.977Z,101573.63
2022-08-29T20:13:53.508Z,101575.19
2022-08-29T20:16:25.869Z,101573.56
2022-08-29T20:18:56.462Z,101571.72
2022-08-29T20:21:25.644Z,101569.56
2022-08-29T20:23:57.671Z,101564.31
2022-08-29T20:26:27.984Z,101581.00
2022-08-29T20:28:58.459Z,101573.47
2022-08-29T20:31:27.985Z,101573.25
2022-08-29T20:33:58.243Z,101573.97
2022-08-29T20:36:45.194Z,101576.53
2022-08-29T20:39:16.584Z,101577.59
2022-08-29T20:41:49.332Z,101575.66
2022-08-29T20:44:20.394Z,101579.41
2022-08-29T20:46:50.077Z,101587.53
2022-08-29T20:49:22.822Z,101585.00
2022-08-29T20:51:52.566Z,101582.97
2022-08-29T20:54:24.225Z,101585.28
2022-08-29T20:56:53.713Z,101588.78
2022-08-29T20:59:26.157Z,101582.91
2022-08-29T21:01:55.548Z,101591.06
2022-08-29T21:04:43.982Z,101590.41
2022-08-29T21:07:14.830Z,101593.78
2022-08-29T21:09:45.868Z,101587.22
2022-08-29T21:12:16.038Z,101585.72
2022-08-29T21:14:45.184Z,101585.66
2022-08-29T21:17:14.948Z,101590.69
2022-08-29T21:19:44.990Z,101596.03
2022-08-29T21:22:15.179Z,101588.19
2022-08-29T21:24:44.557Z,101589.59
2022-08-29T21:27:13.232Z,101590.31
2022-08-29T21:29:42.515Z,101588.88
2022-08-29T21:32:11.192Z,101588.97
2022-08-29T21:34:39.814Z,101589.09
2022-08-29T21:37:09.797Z,101591.41
2022-08-29T21:39:38.393Z,101588.50
2022-08-29T21:42:08.106Z,101590.50
2022-08-29T21:44:36.698Z,101586.59
2022-08-29T21:47:05.934Z,101586.78
2022-08-29T21:49:34.887Z,101587.00
2022-08-29T21:52:03.788Z,101582.72
2022-08-29T21:54:33.762Z,101579.16
2022-08-29T21:57:02.389Z,101580.06
2022-08-29T21:59:31.031Z,101578.34
2022-08-29T22:02:00.097Z,101578.59
2022-08-29T22:04:29.431Z,101580.66
2022-08-29T22:06:59.786Z,101578.16
2022-08-29T22:09:29.823Z,101584.47
2022-08-29T22:12:00.416Z,101596.63
2022-08-29T22:14:43.442Z,101594.59
2022-08-29T22:17:12.179Z,101599.94
2022-08-29T22:19:41.866Z,101600.66
2022-08-29T22:22:10.696Z,101602.34
2022-08-29T22:24:39.288Z,101609.81
2022-08-29T22:27:09.396Z,101601.47
2022-08-29T22:29:38.203Z,101614.78
2022-08-29T22:32:06.960Z,101608.00
2022-08-29T22:34:35.841Z,101613.84
2022-08-29T22:37:04.693Z,101612.63
2022-08-29T22:39:33.451Z,101610.81
2022-08-29T22:42:02.642Z,101616.50
2022-08-29T22:45:00.063Z,101619.25
2022-08-29T22:49:50.039Z,101618.44
2022-08-29T22:52:18.782Z,101610.78
2022-08-29T22:54:47.516Z,101613.75
2022-08-29T22:57:18.212Z,101623.22
2022-08-29T22:59:49.663Z,101622.66
2022-08-29T23:02:20.611Z,101630.88
2022-08-29T23:04:51.681Z,101632.63
2022-08-29T23:07:21.366Z,101624.00
2022-08-29T23:09:50.783Z,101619.03
2022-08-29T23:12:20.343Z,101626.75
2022-08-29T23:14:50.404Z,101627.25
2022-08-29T23:17:20.427Z,101620.75
2022-08-29T23:19:49.959Z,101607.59
2022-08-29T23:22:19.877Z,101618.50
2022-08-29T23:24:58.313Z,101619.56
2022-08-29T23:27:28.436Z,101613.75
2022-08-29T23:29:58.614Z,101617.22
2022-08-29T23:32:27.948Z,101619.22
2022-08-29T23:34:56.872Z,101613.25
2022-08-29T23:37:25.704Z,101631.25
2022-08-29T23:39:54.404Z,101620.91
2022-08-29T23:42:23.070Z,101622.78
2022-08-29T23:44:51.670Z,101624.28
2022-08-29T23:47:21.740Z,101618.91
2022-08-29T23:49:50.366Z,101617.53
2022-08-29T23:52:19.120Z,101622.28
2022-08-29T23:54:47.968Z,101623.41
2022-08-29T23:57:16.590Z,101623.41
